sensor_id;sensor_type;location;lat;lon;timestamp;pressure;altitude;pressure_sealevel;temperature;humidity
55576;BME280;41437;45.478;9.116;2023-04-01T00:02:03;98688.09;;;8.61;nan
55576;BME280;41437;45.478;9.116;2023-04-01T00:05:07;98689.91;;;9.11;nan
55576;BME280;41437;45.478;9.116;2023-04-01T00:08:10;98672.28;;;9.27;nan
55576;BME280;41437;45.478;9.116;2023-04-01T00:11:13;98663.50;;;9.20;nan
55576;BME280;41437;45.478;9.116;2023-04-01T00:14:15;98672.03;;;9.14;nan
55576;BME280;41437;45.478;9.116;2023-04-01T00:17:16;98680.25;;;9.24;nan
55576;BME280;41437;45.478;9.116;2023-04-01T00:20:20;98678.00;;;9.41;nan
55576;BME280;41437;45.478;9.116;2023-04-01T00:23:22;98680.53;;;9.22;nan
55576;BME280;41437;45.478;9.116;2023-04-01T00:26:23;98676.56;;;8.64;nan
55576;BME280;41437;45.478;9.116;2023-04-01T00:29:25;98679.31;;;8.64;nan
55576;BME280;41437;45.478;9.116;2023-04-01T00:32:29;98680.91;;;8.75;nan
55576;BME280;41437;45.478;9.116;2023-04-01T00:35:32;98677.66;;;8.73;nan
55576;BME280;41437;45.478;9.116;2023-04-01T00:38:35;98677.09;;;8.61;nan
55576;BME280;41437;45.478;9.116;2023-04-01T00:41:36;98665.84;;;8.67;nan
55576;BME280;41437;45.478;9.116;2023-04-01T00:44:38;98661.41;;;8.87;nan
55576;BME280;41437;45.478;9.116;2023-04-01T00:47:39;98660.53;;;8.96;nan
55576;BME280;41437;45.478;9.116;2023-04-01T00:50:45;98650.66;;;9.05;nan
55576;BME280;41437;45.478;9.116;2023-04-01T00:53:51;98647.91;;;9.05;nan
55576;BME280;41437;45.478;9.116;2023-04-01T00:56:56;98641.00;;;9.13;nan
55576;BME280;41437;45.478;9.116;2023-04-01T00:59:59;98644.03;;;9.12;nan
55576;BME280;41437;45.478;9.116;2023-04-01T01:03:01;98646.78;;;9.12;nan
55576;BME280;41437;45.478;9.116;2023-04-01T01:06:19;98650.66;;;9.00;nan
55576;BME280;41437;45.478;9.116;2023-04-01T01:09:32;98653.41;;;9.05;nan
55576;BME280;41437;45.478;9.116;2023-04-01T01:12:40;98652.81;;;9.09;nan
55576;BME280;41437;45.478;9.116;2023-04-01T01:15:49;98645.19;;;8.90;nan
55576;BME280;41437;45.478;9.116;2023-04-01T01:18:59;98661.72;;;8.80;nan
55576;BME280;41437;45.478;9.116;2023-04-01T01:22:17;98659.81;;;8.75;nan
55576;BME280;41437;45.478;9.116;2023-04-01T01:25:32;98658.44;;;8.47;nan
55576;BME280;41437;45.478;9.116;2023-04-01T01:28:47;98664.25;;;8.41;nan
55576;BME280;41437;45.478;9.116;2023-04-01T01:32:02;98663.66;;;8.34;nan
55576;BME280;41437;45.478;9.116;2023-04-01T01:35:14;98669.66;;;8.36;nan
55576;BME280;41437;45.478;9.116;2023-04-01T01:38:19;98655.97;;;8.30;nan
55576;BME280;41437;45.478;9.116;2023-04-01T01:41:23;98664.47;;;8.24;nan
55576;BME280;41437;45.478;9.116;2023-04-01T01:44:28;98675.44;;;8.29;nan
55576;BME280;41437;45.478;9.116;2023-04-01T01:47:31;98674.13;;;8.37;nan
55576;BME280;41437;45.478;9.116;2023-04-01T01:50:35;98665.03;;;8.16;nan
55576;BME280;41437;45.478;9.116;2023-04-01T01:53:37;98661.19;;;8.17;nan
55576;BME280;41437;45.478;9.116;2023-04-01T01:56:41;98652.38;;;7.94;nan
55576;BME280;41437;45.478;9.116;2023-04-01T01:59:43;98648.28;;;8.02;nan
55576;BME280;41437;45.478;9.116;2023-04-01T02:02:46;98649.66;;;7.94;nan
55576;BME280;41437;45.478;9.116;2023-04-01T02:05:53;98642.19;;;7.74;nan
55576;BME280;41437;45.478;9.116;2023-04-01T02:08:59;98642.31;;;7.17;nan
55576;BME280;41437;45.478;9.116;2023-04-01T02:12:05;98638.47;;;7.18;nan
55576;BME280;41437;45.478;9.116;2023-04-01T02:15:09;98642.47;;;6.90;nan
55576;BME280;41437;45.478;9.116;2023-04-01T02:18:14;98647.47;;;6.55;nan
55576;BME280;41437;45.478;9.116;2023-04-01T02:21:19;98646.16;;;7.16;nan
55576;BME280;41437;45.478;9.116;2023-04-01T02:24:22;98648.78;;;6.90;nan
55576;BME280;41437;45.478;9.116;2023-04-01T02:27:26;98635.59;;;7.50;nan
55576;BME280;41437;45.478;9.116;2023-04-01T02:30:29;98638.16;;;7.04;nan
55576;BME280;41437;45.478;9.116;2023-04-01T02:33:32;98643.59;;;6.89;nan
55576;BME280;41437;45.478;9.116;2023-04-01T02:36:36;98642.09;;;7.28;nan
55576;BME280;41437;45.478;9.116;2023-04-01T02:39:38;98654.56;;;7.72;nan
55576;BME280;41437;45.478;9.116;2023-04-01T02:42:39;98654.47;;;7.46;nan
55576;BME280;41437;45.478;9.116;2023-04-01T02:45:41;98649.28;;;7.45;nan
55576;BME280;41437;45.478;9.116;2023-04-01T02:48:42;98641.75;;;7.10;nan
55576;BME280;41437;45.478;9.116;2023-04-01T02:51:45;98656.13;;;7.42;nan
55576;BME280;41437;45.478;9.116;2023-04-01T02:54:47;98663.25;;;7.43;nan
55576;BME280;41437;45.478;9.116;2023-04-01T02:57:48;98663.75;;;7.30;nan
55576;BME280;41437;45.478;9.116;2023-04-01T03:00:50;98669.31;;;7.55;nan
55576;BME280;41437;45.478;9.116;2023-04-01T03:03:52;98670.47;;;7.75;nan
55576;BME280;41437;45.478;9.116;2023-04-01T03:06:55;98660.28;;;7.70;nan
55576;BME280;41437;45.478;9.116;2023-04-01T03:09:56;98650.69;;;7.68;nan
55576;BME280;41437;45.478;9.116;2023-04-01T03:12:58;98646.88;;;7.79;nan
55576;BME280;41437;45.478;9.116;2023-04-01T03:15:59;98646.06;;;7.78;nan
55576;BME280;41437;45.478;9.116;2023-04-01T03:19:01;98661.16;;;7.76;nan
55576;BME280;41437;45.478;9.116;2023-04-01T03:22:04;98651.22;;;7.49;nan
55576;BME280;41437;45.478;9.116;2023-04-01T03:25:06;98658.63;;;7.49;nan
55576;BME280;41437;45.478;9.116;2023-04-01T03:28:08;98656.81;;;7.12;nan
55576;BME280;41437;45.478;9.116;2023-04-01T03:31:10;98657.28;;;6.94;nan
55576;BME280;41437;45.478;9.116;2023-04-01T03:34:12;98659.34;;;7.19;nan
55576;BME280;41437;45.478;9.116;2023-04-01T03:37:15;98662.06;;;7.19;nan
55576;BME280;41437;45.478;9.116;2023-04-01T03:40:17;98674.88;;;7.08;nan
55576;BME280;41437;45.478;9.116;2023-04-01T03:43:18;98679.56;;;7.13;nan
55576;BME280;41437;45.478;9.116;2023-04-01T03:46:20;98681.47;;;7.07;nan
55576;BME280;41437;45.478;9.116;2023-04-01T03:49:22;98689.19;;;7.20;nan
55576;BME280;41437;45.478;9.116;2023-04-01T03:52:25;98687.88;;;7.38;nan
55576;BME280;41437;45.478;9.116;2023-04-01T03:55:26;98690.09;;;7.36;nan
55576;BME280;41437;45.478;9.116;2023-04-01T03:58:28;98683.50;;;7.32;nan
55576;BME280;41437;45.478;9.116;2023-04-01T04:01:29;98692.56;;;7.43;nan
55576;BME280;41437;45.478;9.116;2023-04-01T04:04:31;98703.31;;;7.54;nan
55576;BME280;41437;45.478;9.116;2023-04-01T04:07:35;98696.63;;;7.35;nan
55576;BME280;41437;45.478;9.116;2023-04-01T04:10:36;98684.84;;;7.35;nan
55576;BME280;41437;45.478;9.116;2023-04-01T04:13:39;98703.53;;;7.48;nan
55576;BME280;41437;45.478;9.116;2023-04-01T04:16:41;98706.28;;;7.53;nan
55576;BME280;41437;45.478;9.116;2023-04-01T04:19:43;98710.94;;;7.47;nan
55576;BME280;41437;45.478;9.116;2023-04-01T04:22:46;98711.59;;;7.12;nan
55576;BME280;41437;45.478;9.116;2023-04-01T04:25:56;98710.75;;;7.07;nan
55576;BME280;41437;45.478;9.116;2023-04-01T04:28:58;98688.84;;;7.01;nan
55576;BME280;41437;45.478;9.116;2023-04-01T04:31:59;98689.47;;;7.19;nan
55576;BME280;41437;45.478;9.116;2023-04-01T04:35:01;98697.44;;;7.25;nan
55576;BME280;41437;45.478;9.116;2023-04-01T04:38:04;98689.50;;;7.29;nan
55576;BME280;41437;45.478;9.116;2023-04-01T04:41:08;98695.28;;;7.33;nan
55576;BME280;41437;45.478;9.116;2023-04-01T04:44:12;98686.66;;;7.09;nan
55576;BME280;41437;45.478;9.116;2023-04-01T04:47:13;98691.56;;;7.01;nan
55576;BME280;41437;45.478;9.116;2023-04-01T04:50:15;98705.94;;;6.82;nan
55576;BME280;41437;45.478;9.116;2023-04-01T04:53:18;98698.31;;;6.46;nan
55576;BME280;41437;45.478;9.116;2023-04-01T04:56:22;98707.06;;;6.48;nan
55576;BME280;41437;45.478;9.116;2023-04-01T04:59:25;98704.41;;;6.53;nan
55576;BME280;41437;45.478;9.116;2023-04-01T05:02:27;98702.78;;;6.58;nan
55576;BME280;41437;45.478;9.116;2023-04-01T05:05:28;98702.59;;;6.69;nan
55576;BME280;41437;45.478;9.116;2023-04-01T05:08:32;98711.75;;;6.90;nan
55576;BME280;41437;45.478;9.116;2023-04-01T05:11:34;98706.31;;;6.95;nan
55576;BME280;41437;45.478;9.116;2023-04-01T05:14:35;98710.75;;;7.01;nan
55576;BME280;41437;45.478;9.116;2023-04-01T05:17:37;98697.59;;;7.03;nan
55576;BME280;41437;45.478;9.116;2023-04-01T05:20:38;98696.25;;;7.06;nan
55576;BME280;41437;45.478;9.116;2023-04-01T05:23:42;98701.16;;;7.09;nan
55576;BME280;41437;45.478;9.116;2023-04-01T05:26:43;98704.84;;;6.83;nan
55576;BME280;41437;45.478;9.116;2023-04-01T05:29:45;98721.34;;;6.50;nan
55576;BME280;41437;45.478;9.116;2023-04-01T05:32:47;98711.75;;;6.16;nan
55576;BME280;41437;45.478;9.116;2023-04-01T05:35:48;98714.44;;;6.11;nan
55576;BME280;41437;45.478;9.116;2023-04-01T05:38:54;98713.84;;;6.36;nan
55576;BME280;41437;45.478;9.116;2023-04-01T05:41:56;98718.16;;;6.64;nan
55576;BME280;41437;45.478;9.116;2023-04-01T05:44:58;98723.94;;;7.10;nan
55576;BME280;41437;45.478;9.116;2023-04-01T05:47:59;98731.78;;;6.53;nan
55576;BME280;41437;45.478;9.116;2023-04-01T05:51:01;98735.81;;;6.46;nan
55576;BME280;41437;45.478;9.116;2023-04-01T05:54:05;98744.81;;;7.26;nan
55576;BME280;41437;45.478;9.116;2023-04-01T05:57:07;98746.19;;;7.96;nan
55576;BME280;41437;45.478;9.116;2023-04-01T06:00:11;98739.38;;;8.35;nan
55576;BME280;41437;45.478;9.116;2023-04-01T06:03:13;98740.56;;;8.49;nan
55576;BME280;41437;45.478;9.116;2023-04-01T06:06:18;98749.03;;;8.37;nan
55576;BME280;41437;45.478;9.116;2023-04-01T06:09:26;98758.38;;;8.41;nan
55576;BME280;41437;45.478;9.116;2023-04-01T06:12:41;98762.22;;;8.86;nan
55576;BME280;41437;45.478;9.116;2023-04-01T06:15:51;98764.69;;;8.82;nan
55576;BME280;41437;45.478;9.116;2023-04-01T06:19:05;98767.91;;;9.30;nan
55576;BME280;41437;45.478;9.116;2023-04-01T06:22:32;98765.03;;;10.21;nan
55576;BME280;41437;45.478;9.116;2023-04-01T06:25:44;98776.66;;;10.91;nan
55576;BME280;41437;45.478;9.116;2023-04-01T06:29:06;98786.59;;;11.21;nan
55576;BME280;41437;45.478;9.116;2023-04-01T06:32:27;98785.31;;;11.62;nan
55576;BME280;41437;45.478;9.116;2023-04-01T06:35:44;98775.53;;;11.74;nan
55576;BME280;41437;45.478;9.116;2023-04-01T06:42:51;98767.97;;;12.28;nan
55576;BME280;41437;45.478;9.116;2023-04-01T06:45:59;98768.47;;;12.30;nan
55576;BME280;41437;45.478;9.116;2023-04-01T06:49:21;98773.31;;;12.19;nan
55576;BME280;41437;45.478;9.116;2023-04-01T06:52:32;98769.44;;;12.20;nan
55576;BME280;41437;45.478;9.116;2023-04-01T06:55:38;98772.06;;;11.88;nan
55576;BME280;41437;45.478;9.116;2023-04-01T06:58:46;98785.31;;;11.62;nan
55576;BME280;41437;45.478;9.116;2023-04-01T07:01:52;98780.88;;;11.13;nan
55576;BME280;41437;45.478;9.116;2023-04-01T07:04:56;98773.00;;;10.22;nan
55576;BME280;41437;45.478;9.116;2023-04-01T07:07:59;98783.16;;;10.37;nan
55576;BME280;41437;45.478;9.116;2023-04-01T07:11:04;98775.63;;;10.48;nan
55576;BME280;41437;45.478;9.116;2023-04-01T07:14:13;98767.88;;;10.05;nan
55576;BME280;41437;45.478;9.116;2023-04-01T07:17:20;98768.69;;;11.19;nan
55576;BME280;41437;45.478;9.116;2023-04-01T07:20:26;98773.19;;;11.10;nan
55576;BME280;41437;45.478;9.116;2023-04-01T07:23:32;98777.22;;;10.88;nan
55576;BME280;41437;45.478;9.116;2023-04-01T07:26:38;98786.38;;;10.49;nan
55576;BME280;41437;45.478;9.116;2023-04-01T07:29:43;98784.91;;;11.25;nan
55576;BME280;41437;45.478;9.116;2023-04-01T07:32:47;98784.97;;;11.44;nan
55576;BME280;41437;45.478;9.116;2023-04-01T07:35:55;98774.84;;;11.64;nan
55576;BME280;41437;45.478;9.116;2023-04-01T07:39:20;98775.00;;;11.96;nan
55576;BME280;41437;45.478;9.116;2023-04-01T07:42:31;98768.53;;;12.25;nan
55576;BME280;41437;45.478;9.116;2023-04-01T07:45:47;98766.44;;;12.36;nan
55576;BME280;41437;45.478;9.116;2023-04-01T07:49:04;98777.09;;;12.61;nan
55576;BME280;41437;45.478;9.116;2023-04-01T07:52:12;98793.16;;;12.78;nan
55576;BME280;41437;45.478;9.116;2023-04-01T07:55:21;98801.81;;;12.90;nan
55576;BME280;41437;45.478;9.116;2023-04-01T07:58:41;98807.16;;;13.00;nan
55576;BME280;41437;45.478;9.116;2023-04-01T08:01:56;98806.75;;;12.93;nan
55576;BME280;41437;45.478;9.116;2023-04-01T08:05:09;98790.47;;;12.73;nan
55576;BME280;41437;45.478;9.116;2023-04-01T08:08:20;98778.38;;;13.01;nan
55576;BME280;41437;45.478;9.116;2023-04-01T08:11:39;98782.47;;;13.23;nan
55576;BME280;41437;45.478;9.116;2023-04-01T08:14:52;98790.72;;;13.42;nan
55576;BME280;41437;45.478;9.116;2023-04-01T08:18:04;98793.38;;;13.33;nan
55576;BME280;41437;45.478;9.116;2023-04-01T08:21:10;98799.72;;;13.47;nan
55576;BME280;41437;45.478;9.116;2023-04-01T08:24:21;98807.13;;;13.52;nan
55576;BME280;41437;45.478;9.116;2023-04-01T08:27:28;98801.91;;;13.78;nan
55576;BME280;41437;45.478;9.116;2023-04-01T08:30:40;98801.59;;;13.93;nan
55576;BME280;41437;45.478;9.116;2023-04-01T08:33:46;98806.50;;;14.10;nan
55576;BME280;41437;45.478;9.116;2023-04-01T08:36:50;98807.63;;;14.37;nan
55576;BME280;41437;45.478;9.116;2023-04-01T08:39:58;98808.19;;;14.61;nan
55576;BME280;41437;45.478;9.116;2023-04-01T08:43:07;98794.06;;;14.71;nan
55576;BME280;41437;45.478;9.116;2023-04-01T08:46:38;98803.47;;;14.84;nan
55576;BME280;41437;45.478;9.116;2023-04-01T08:53:52;98805.75;;;14.82;nan
55576;BME280;41437;45.478;9.116;2023-04-01T08:56:59;98799.72;;;15.02;nan
55576;BME280;41437;45.478;9.116;2023-04-01T09:00:24;98798.19;;;14.74;nan
55576;BME280;41437;45.478;9.116;2023-04-01T09:03:40;98799.59;;;14.85;nan
55576;BME280;41437;45.478;9.116;2023-04-01T09:06:52;98805.06;;;14.99;nan
55576;BME280;41437;45.478;9.116;2023-04-01T09:10:24;98799.88;;;15.28;nan
55576;BME280;41437;45.478;9.116;2023-04-01T09:13:41;98801.00;;;15.27;nan
55576;BME280;41437;45.478;9.116;2023-04-01T09:17:09;98806.38;;;15.01;nan
55576;BME280;41437;45.478;9.116;2023-04-01T09:20:41;98807.25;;;15.33;nan
55576;BME280;41437;45.478;9.116;2023-04-01T09:27:28;98798.44;;;14.86;nan
55576;BME280;41437;45.478;9.116;2023-04-01T09:30:33;98799.69;;;14.80;nan
55576;BME280;41437;45.478;9.116;2023-04-01T09:33:52;98794.91;;;14.94;nan
55576;BME280;41437;45.478;9.116;2023-04-01T09:37:09;98798.97;;;15.42;nan
55576;BME280;41437;45.478;9.116;2023-04-01T09:40:23;98798.63;;;16.14;nan
55576;BME280;41437;45.478;9.116;2023-04-01T09:43:45;98800.00;;;16.51;nan
55576;BME280;41437;45.478;9.116;2023-04-01T09:46:59;98813.63;;;16.79;nan
55576;BME280;41437;45.478;9.116;2023-04-01T09:50:29;98807.59;;;16.94;nan
55576;BME280;41437;45.478;9.116;2023-04-01T09:53:46;98818.03;;;16.97;nan
55576;BME280;41437;45.478;9.116;2023-04-01T09:57:09;98815.91;;;17.12;nan
55576;BME280;41437;45.478;9.116;2023-04-01T10:04:23;98814.53;;;17.44;nan
55576;BME280;41437;45.478;9.116;2023-04-01T10:11:32;98804.91;;;17.88;nan
55576;BME280;41437;45.478;9.116;2023-04-01T10:18:31;98811.00;;;17.90;nan
55576;BME280;41437;45.478;9.116;2023-04-01T10:21:59;98812.31;;;17.84;nan
55576;BME280;41437;45.478;9.116;2023-04-01T10:29:09;98807.63;;;18.05;nan
55576;BME280;41437;45.478;9.116;2023-04-01T10:32:35;98809.34;;;18.19;nan
55576;BME280;41437;45.478;9.116;2023-04-01T10:36:13;98803.69;;;18.06;nan
55576;BME280;41437;45.478;9.116;2023-04-01T10:39:33;98798.50;;;17.96;nan
55576;BME280;41437;45.478;9.116;2023-04-01T10:43:14;98803.50;;;18.12;nan
55576;BME280;41437;45.478;9.116;2023-04-01T10:46:49;98799.56;;;18.42;nan
55576;BME280;41437;45.478;9.116;2023-04-01T10:50:31;98803.97;;;18.43;nan
55576;BME280;41437;45.478;9.116;2023-04-01T10:53:54;98798.28;;;18.31;nan
55576;BME280;41437;45.478;9.116;2023-04-01T10:57:01;98800.63;;;18.50;nan
55576;BME280;41437;45.478;9.116;2023-04-01T11:00:25;98799.25;;;18.35;nan
55576;BME280;41437;45.478;9.116;2023-04-01T11:04:01;98798.88;;;18.66;nan
55576;BME280;41437;45.478;9.116;2023-04-01T11:07:24;98791.28;;;17.95;nan
55576;BME280;41437;45.478;9.116;2023-04-01T11:11:06;98792.47;;;18.66;nan
55576;BME280;41437;45.478;9.116;2023-04-01T11:14:40;98782.38;;;18.82;nan
55576;BME280;41437;45.478;9.116;2023-04-01T11:18:35;98788.03;;;19.06;nan
55576;BME280;41437;45.478;9.116;2023-04-01T11:21:59;98785.13;;;19.36;nan
55576;BME280;41437;45.478;9.116;2023-04-01T11:25:29;98782.47;;;19.73;nan
55576;BME280;41437;45.478;9.116;2023-04-01T11:29:06;98789.91;;;19.93;nan
55576;BME280;41437;45.478;9.116;2023-04-01T11:32:21;98797.13;;;19.70;nan
55576;BME280;41437;45.478;9.116;2023-04-01T11:35:47;98785.59;;;19.83;nan
55576;BME280;41437;45.478;9.116;2023-04-01T11:39:12;98789.47;;;20.03;nan
55576;BME280;41437;45.478;9.116;2023-04-01T11:42:26;98784.91;;;19.41;nan
55576;BME280;41437;45.478;9.116;2023-04-01T11:45:36;98778.50;;;19.74;nan
55576;BME280;41437;45.478;9.116;2023-04-01T11:48:49;98781.56;;;19.15;nan
55576;BME280;41437;45.478;9.116;2023-04-01T11:55:44;98779.41;;;19.32;nan
55576;BME280;41437;45.478;9.116;2023-04-01T11:58:57;98764.91;;;19.39;nan
55576;BME280;41437;45.478;9.116;2023-04-01T12:02:11;98766.72;;;19.68;nan
55576;BME280;41437;45.478;9.116;2023-04-01T12:05:38;98761.38;;;20.12;nan
55576;BME280;41437;45.478;9.116;2023-04-01T12:08:46;98766.41;;;19.94;nan
55576;BME280;41437;45.478;9.116;2023-04-01T12:12:14;98766.59;;;20.50;nan
55576;BME280;41437;45.478;9.116;2023-04-01T12:15:23;98762.31;;;19.92;nan
55576;BME280;41437;45.478;9.116;2023-04-01T12:18:36;98760.19;;;19.89;nan
55576;BME280;41437;45.478;9.116;2023-04-01T12:21:45;98751.78;;;20.50;nan
55576;BME280;41437;45.478;9.116;2023-04-01T12:24:58;98753.25;;;21.00;nan
55576;BME280;41437;45.478;9.116;2023-04-01T12:28:10;98751.66;;;21.58;nan
55576;BME280;41437;45.478;9.116;2023-04-01T12:31:25;98750.75;;;21.54;nan
55576;BME280;41437;45.478;9.116;2023-04-01T12:34:51;98751.84;;;21.34;nan
55576;BME280;41437;45.478;9.116;2023-04-01T12:38:10;98745.16;;;21.54;nan
55576;BME280;41437;45.478;9.116;2023-04-01T12:41:23;98743.47;;;20.94;nan
55576;BME280;41437;45.478;9.116;2023-04-01T12:44:34;98740.09;;;20.60;nan
55576;BME280;41437;45.478;9.116;2023-04-01T12:48:05;98734.16;;;21.18;nan
55576;BME280;41437;45.478;9.116;2023-04-01T12:51:43;98732.38;;;21.41;nan
55576;BME280;41437;45.478;9.116;2023-04-01T12:55:02;98724.13;;;21.17;nan
55576;BME280;41437;45.478;9.116;2023-04-01T13:02:03;98721.44;;;21.36;nan
55576;BME280;41437;45.478;9.116;2023-04-01T13:05:20;98725.25;;;21.44;nan
55576;BME280;41437;45.478;9.116;2023-04-01T13:08:36;98721.38;;;21.80;nan
55576;BME280;41437;45.478;9.116;2023-04-01T13:11:50;98726.41;;;22.06;nan
55576;BME280;41437;45.478;9.116;2023-04-01T13:15:17;98716.47;;;22.08;nan
55576;BME280;41437;45.478;9.116;2023-04-01T13:18:29;98723.06;;;22.00;nan
55576;BME280;41437;45.478;9.116;2023-04-01T13:21:43;98715.28;;;22.09;nan
55576;BME280;41437;45.478;9.116;2023-04-01T13:24:51;98718.13;;;22.29;nan
55576;BME280;41437;45.478;9.116;2023-04-01T13:28:07;98719.78;;;22.30;nan
55576;BME280;41437;45.478;9.116;2023-04-01T13:31:25;98704.69;;;22.19;nan
55576;BME280;41437;45.478;9.116;2023-04-01T13:34:38;98712.22;;;22.15;nan
55576;BME280;41437;45.478;9.116;2023-04-01T13:37:51;98711.59;;;21.90;nan
55576;BME280;41437;45.478;9.116;2023-04-01T13:41:05;98703.63;;;22.07;nan
55576;BME280;41437;45.478;9.116;2023-04-01T13:44:15;98704.25;;;22.01;nan
55576;BME280;41437;45.478;9.116;2023-04-01T13:50:55;98699.00;;;21.99;nan
55576;BME280;41437;45.478;9.116;2023-04-01T13:54:23;98700.16;;;22.30;nan
55576;BME280;41437;45.478;9.116;2023-04-01T13:57:57;98694.41;;;22.62;nan
55576;BME280;41437;45.478;9.116;2023-04-01T14:01:10;98688.94;;;22.69;nan
55576;BME280;41437;45.478;9.116;2023-04-01T14:04:47;98674.66;;;22.58;nan
55576;BME280;41437;45.478;9.116;2023-04-01T14:07:58;98675.69;;;21.95;nan
55576;BME280;41437;45.478;9.116;2023-04-01T14:11:13;98671.34;;;22.52;nan
55576;BME280;41437;45.478;9.116;2023-04-01T14:14:22;98671.56;;;23.02;nan
55576;BME280;41437;45.478;9.116;2023-04-01T14:17:47;98669.88;;;22.58;nan
55576;BME280;41437;45.478;9.116;2023-04-01T14:21:01;98679.88;;;21.70;nan
55576;BME280;41437;45.478;9.116;2023-04-01T14:24:22;98665.25;;;20.45;nan
55576;BME280;41437;45.478;9.116;2023-04-01T14:27:34;98654.22;;;20.48;nan
55576;BME280;41437;45.478;9.116;2023-04-01T14:30:46;98650.88;;;20.87;nan
55576;BME280;41437;45.478;9.116;2023-04-01T14:34:03;98650.28;;;21.09;nan
55576;BME280;41437;45.478;9.116;2023-04-01T14:37:25;98642.59;;;20.90;nan
55576;BME280;41437;45.478;9.116;2023-04-01T14:40:54;98641.25;;;20.44;nan
55576;BME280;41437;45.478;9.116;2023-04-01T14:44:29;98633.28;;;20.86;nan
55576;BME280;41437;45.478;9.116;2023-04-01T14:47:43;98630.47;;;21.02;nan
55576;BME280;41437;45.478;9.116;2023-04-01T14:50:50;98633.59;;;21.44;nan
55576;BME280;41437;45.478;9.116;2023-04-01T14:54:00;98629.78;;;21.68;nan
55576;BME280;41437;45.478;9.116;2023-04-01T14:57:10;98626.38;;;21.94;nan
55576;BME280;41437;45.478;9.116;2023-04-01T15:00:13;98614.91;;;22.57;nan
55576;BME280;41437;45.478;9.116;2023-04-01T15:03:23;98626.81;;;22.51;nan
55576;BME280;41437;45.478;9.116;2023-04-01T15:07:00;98612.06;;;22.35;nan
55576;BME280;41437;45.478;9.116;2023-04-01T15:10:10;98610.47;;;21.82;nan
55576;BME280;41437;45.478;9.116;2023-04-01T15:16:53;98613.88;;;21.56;nan
55576;BME280;41437;45.478;9.116;2023-04-01T15:20:10;98603.78;;;21.20;nan
55576;BME280;41437;45.478;9.116;2023-04-01T15:23:27;98605.72;;;21.67;nan
55576;BME280;41437;45.478;9.116;2023-04-01T15:26:57;98593.28;;;21.84;nan
55576;BME280;41437;45.478;9.116;2023-04-01T15:30:25;98594.09;;;20.86;nan
55576;BME280;41437;45.478;9.116;2023-04-01T15:33:41;98584.78;;;21.80;nan
55576;BME280;41437;45.478;9.116;2023-04-01T15:36:51;98577.34;;;22.43;nan
55576;BME280;41437;45.478;9.116;2023-04-01T15:39:57;98570.63;;;22.70;nan
55576;BME280;41437;45.478;9.116;2023-04-01T15:43:11;98570.16;;;22.88;nan
55576;BME280;41437;45.478;9.116;2023-04-01T15:46:39;98567.69;;;22.21;nan
55576;BME280;41437;45.478;9.116;2023-04-01T15:49:47;98579.34;;;21.52;nan
55576;BME280;41437;45.478;9.116;2023-04-01T15:53:05;98572.94;;;21.20;nan
55576;BME280;41437;45.478;9.116;2023-04-01T15:56:26;98562.19;;;20.91;nan
55576;BME280;41437;45.478;9.116;2023-04-01T15:59:47;98560.91;;;21.20;nan
55576;BME280;41437;45.478;9.116;2023-04-01T16:03:09;98563.75;;;21.36;nan
55576;BME280;41437;45.478;9.116;2023-04-01T16:06:27;98555.25;;;21.16;nan
55576;BME280;41437;45.478;9.116;2023-04-01T16:09:43;98554.94;;;21.53;nan
55576;BME280;41437;45.478;9.116;2023-04-01T16:13:02;98556.66;;;21.57;nan
55576;BME280;41437;45.478;9.116;2023-04-01T16:16:12;98543.19;;;21.82;nan
55576;BME280;41437;45.478;9.116;2023-04-01T16:22:53;98542.00;;;21.83;nan
55576;BME280;41437;45.478;9.116;2023-04-01T16:26:05;98551.06;;;22.12;nan
55576;BME280;41437;45.478;9.116;2023-04-01T16:29:12;98553.00;;;21.92;nan
55576;BME280;41437;45.478;9.116;2023-04-01T16:32:29;98555.25;;;21.16;nan
55576;BME280;41437;45.478;9.116;2023-04-01T16:35:41;98560.88;;;20.00;nan
55576;BME280;41437;45.478;9.116;2023-04-01T16:38:49;98553.50;;;19.68;nan
55576;BME280;41437;45.478;9.116;2023-04-01T16:42:07;98551.56;;;19.31;nan
55576;BME280;41437;45.478;9.116;2023-04-01T16:45:19;98553.91;;;19.17;nan
55576;BME280;41437;45.478;9.116;2023-04-01T16:48:35;98557.50;;;19.05;nan
55576;BME280;41437;45.478;9.116;2023-04-01T16:51:52;98557.06;;;18.58;nan
55576;BME280;41437;45.478;9.116;2023-04-01T16:54:57;98553.63;;;18.40;nan
55576;BME280;41437;45.478;9.116;2023-04-01T16:58:06;98545.94;;;18.37;nan
55576;BME280;41437;45.478;9.116;2023-04-01T17:01:17;98547.69;;;18.29;nan
55576;BME280;41437;45.478;9.116;2023-04-01T17:04:31;98546.47;;;18.18;nan
55576;BME280;41437;45.478;9.116;2023-04-01T17:07:44;98549.13;;;18.15;nan
55576;BME280;41437;45.478;9.116;2023-04-01T17:10:53;98545.22;;;18.16;nan
55576;BME280;41437;45.478;9.116;2023-04-01T17:14:09;98544.66;;;18.01;nan
55576;BME280;41437;45.478;9.116;2023-04-01T17:17:34;98544.81;;;18.05;nan
55576;BME280;41437;45.478;9.116;2023-04-01T17:20:42;98548.66;;;18.13;nan
55576;BME280;41437;45.478;9.116;2023-04-01T17:23:50;98541.13;;;18.13;nan
55576;BME280;41437;45.478;9.116;2023-04-01T17:26:56;98541.19;;;18.04;nan
55576;BME280;41437;45.478;9.116;2023-04-01T17:30:27;98550.53;;;17.88;nan
55576;BME280;41437;45.478;9.116;2023-04-01T17:33:50;98543.59;;;17.94;nan
55576;BME280;41437;45.478;9.116;2023-04-01T17:37:04;98549.09;;;18.02;nan
55576;BME280;41437;45.478;9.116;2023-04-01T17:40:37;98538.03;;;17.94;nan
55576;BME280;41437;45.478;9.116;2023-04-01T17:43:47;98554.19;;;17.79;nan
55576;BME280;41437;45.478;9.116;2023-04-01T17:47:10;98545.47;;;17.60;nan
55576;BME280;41437;45.478;9.116;2023-04-01T17:50:22;98538.25;;;17.38;nan
55576;BME280;41437;45.478;9.116;2023-04-01T17:53:33;98541.50;;;17.11;nan
55576;BME280;41437;45.478;9.116;2023-04-01T17:56:47;98538.16;;;16.96;nan
55576;BME280;41437;45.478;9.116;2023-04-01T18:00:02;98543.91;;;16.91;nan
55576;BME280;41437;45.478;9.116;2023-04-01T18:03:16;98540.72;;;16.80;nan
55576;BME280;41437;45.478;9.116;2023-04-01T18:06:26;98535.69;;;16.56;nan
55576;BME280;41437;45.478;9.116;2023-04-01T18:09:38;98537.84;;;16.51;nan
55576;BME280;41437;45.478;9.116;2023-04-01T18:13:06;98542.88;;;16.49;nan
55576;BME280;41437;45.478;9.116;2023-04-01T18:16:21;98543.41;;;16.42;nan